sensor_id;sensor_type;location;lat;lon;timestamp;P1;durP1;ratioP1;P2;durP2;ratioP2
4786;SDS011;62338;48.832;9.422;2023-06-10T00:01:51;5.90;;;3.70;;
4786;SDS011;62338;48.832;9.422;2023-06-10T00:03:56;6.13;;;3.40;;
4786;SDS011;62338;48.832;9.422;2023-06-10T00:05:58;5.43;;;3.63;;
4786;SDS011;62338;48.832;9.422;2023-06-10T00:08:00;7.17;;;3.63;;
4786;SDS011;62338;48.832;9.422;2023-06-10T00:10:08;6.33;;;3.83;;
4786;SDS011;62338;48.832;9.422;2023-06-10T00:12:11;7.57;;;4.10;;
4786;SDS011;62338;48.832;9.422;2023-06-10T00:14:13;8.87;;;3.73;;
4786;SDS011;62338;48.832;9.422;2023-06-10T00:16:15;6.87;;;4.00;;
4786;SDS011;62338;48.832;9.422;2023-06-10T00:18:19;5.73;;;4.17;;
4786;SDS011;62338;48.832;9.422;2023-06-10T00:20:23;6.30;;;3.70;;
4786;SDS011;62338;48.832;9.422;2023-06-10T00:22:26;6.70;;;3.50;;
4786;SDS011;62338;48.832;9.422;2023-06-10T00:24:30;6.20;;;3.50;;
4786;SDS011;62338;48.832;9.422;2023-06-10T00:26:32;5.33;;;3.57;;
4786;SDS011;62338;48.832;9.422;2023-06-10T00:28:34;5.50;;;3.30;;
4786;SDS011;62338;48.832;9.422;2023-06-10T00:30:36;6.67;;;3.83;;
4786;SDS011;62338;48.832;9.422;2023-06-10T00:32:37;5.10;;;3.53;;
4786;SDS011;62338;48.832;9.422;2023-06-10T00:34:39;5.90;;;3.20;;
4786;SDS011;62338;48.832;9.422;2023-06-10T00:36:41;8.73;;;3.23;;
4786;SDS011;62338;48.832;9.422;2023-06-10T00:38:44;4.63;;;2.93;;
4786;SDS011;62338;48.832;9.422;2023-06-10T00:40:46;4.50;;;2.77;;
4786;SDS011;62338;48.832;9.422;2023-06-10T00:42:47;4.93;;;3.07;;
4786;SDS011;62338;48.832;9.422;2023-06-10T00:44:53;5.30;;;3.33;;
4786;SDS011;62338;48.832;9.422;2023-06-10T00:46:56;5.93;;;3.57;;
4786;SDS011;62338;48.832;9.422;2023-06-10T00:48:58;4.40;;;3.00;;
4786;SDS011;62338;48.832;9.422;2023-06-10T00:51:00;5.70;;;3.27;;
4786;SDS011;62338;48.832;9.422;2023-06-10T00:53:02;7.07;;;4.33;;
4786;SDS011;62338;48.832;9.422;2023-06-10T00:55:04;5.13;;;3.27;;
4786;SDS011;62338;48.832;9.422;2023-06-10T00:57:06;7.43;;;3.77;;
4786;SDS011;62338;48.832;9.422;2023-06-10T00:59:08;5.00;;;3.33;;
4786;SDS011;62338;48.832;9.422;2023-06-10T01:01:10;11.20;;;3.10;;
4786;SDS011;62338;48.832;9.422;2023-06-10T01:03:13;4.80;;;3.20;;
4786;SDS011;62338;48.832;9.422;2023-06-10T01:05:18;4.87;;;3.23;;
4786;SDS011;62338;48.832;9.422;2023-06-10T01:10:19;7.00;;;3.60;;
4786;SDS011;62338;48.832;9.422;2023-06-10T01:14:55;5.30;;;3.60;;
4786;SDS011;62338;48.832;9.422;2023-06-10T01:17:00;4.60;;;3.30;;
4786;SDS011;62338;48.832;9.422;2023-06-10T01:19:05;6.33;;;3.07;;
4786;SDS011;62338;48.832;9.422;2023-06-10T01:21:07;7.17;;;3.50;;
4786;SDS011;62338;48.832;9.422;2023-06-10T01:23:10;5.60;;;3.40;;
4786;SDS011;62338;48.832;9.422;2023-06-10T01:25:12;5.30;;;3.73;;
4786;SDS011;62338;48.832;9.422;2023-06-10T01:27:14;7.13;;;3.00;;
4786;SDS011;62338;48.832;9.422;2023-06-10T01:29:27;4.70;;;3.00;;
4786;SDS011;62338;48.832;9.422;2023-06-10T01:31:38;7.70;;;3.43;;
4786;SDS011;62338;48.832;9.422;2023-06-10T01:33:43;6.23;;;3.43;;
4786;SDS011;62338;48.832;9.422;2023-06-10T01:35:48;5.10;;;3.50;;
4786;SDS011;62338;48.832;9.422;2023-06-10T01:37:52;4.73;;;3.20;;
4786;SDS011;62338;48.832;9.422;2023-06-10T01:39:57;6.23;;;4.00;;
4786;SDS011;62338;48.832;9.422;2023-06-10T01:42:00;6.50;;;3.60;;
4786;SDS011;62338;48.832;9.422;2023-06-10T01:44:03;5.83;;;3.77;;
4786;SDS011;62338;48.832;9.422;2023-06-10T01:46:05;5.27;;;3.30;;
4786;SDS011;62338;48.832;9.422;2023-06-10T01:48:07;6.90;;;3.67;;
4786;SDS011;62338;48.832;9.422;2023-06-10T01:50:09;5.27;;;3.37;;
4786;SDS011;62338;48.832;9.422;2023-06-10T01:52:11;5.57;;;3.50;;
4786;SDS011;62338;48.832;9.422;2023-06-10T01:54:13;5.90;;;3.53;;
4786;SDS011;62338;48.832;9.422;2023-06-10T01:56:14;5.40;;;3.53;;
4786;SDS011;62338;48.832;9.422;2023-06-10T01:58:19;5.00;;;3.60;;
4786;SDS011;62338;48.832;9.422;2023-06-10T02:00:21;5.50;;;3.80;;
4786;SDS011;62338;48.832;9.422;2023-06-10T02:02:22;6.10;;;3.77;;
4786;SDS011;62338;48.832;9.422;2023-06-10T02:04:26;5.80;;;3.50;;
4786;SDS011;62338;48.832;9.422;2023-06-10T02:06:27;5.70;;;3.70;;
4786;SDS011;62338;48.832;9.422;2023-06-10T02:08:29;6.07;;;3.60;;
4786;SDS011;62338;48.832;9.422;2023-06-10T02:10:31;5.17;;;3.13;;
4786;SDS011;62338;48.832;9.422;2023-06-10T02:12:32;5.20;;;3.53;;
4786;SDS011;62338;48.832;9.422;2023-06-10T02:14:34;5.60;;;3.73;;
4786;SDS011;62338;48.832;9.422;2023-06-10T02:16:36;5.10;;;3.50;;
4786;SDS011;62338;48.832;9.422;2023-06-10T02:18:39;5.80;;;3.63;;
4786;SDS011;62338;48.832;9.422;2023-06-10T02:20:44;6.00;;;3.73;;
4786;SDS011;62338;48.832;9.422;2023-06-10T02:22:46;6.30;;;3.83;;
4786;SDS011;62338;48.832;9.422;2023-06-10T02:24:48;6.17;;;3.30;;
4786;SDS011;62338;48.832;9.422;2023-06-10T02:26:50;6.33;;;4.13;;
4786;SDS011;62338;48.832;9.422;2023-06-10T02:28:52;6.10;;;3.83;;
4786;SDS011;62338;48.832;9.422;2023-06-10T02:30:54;5.87;;;3.47;;
4786;SDS011;62338;48.832;9.422;2023-06-10T02:32:58;5.67;;;3.60;;
4786;SDS011;62338;48.832;9.422;2023-06-10T02:35:00;5.80;;;3.90;;
4786;SDS011;62338;48.832;9.422;2023-06-10T02:37:02;5.67;;;3.40;;
4786;SDS011;62338;48.832;9.422;2023-06-10T02:39:04;5.73;;;3.57;;
4786;SDS011;62338;48.832;9.422;2023-06-10T02:41:06;6.77;;;3.93;;
4786;SDS011;62338;48.832;9.422;2023-06-10T02:43:08;5.30;;;3.80;;
4786;SDS011;62338;48.832;9.422;2023-06-10T02:45:10;7.30;;;3.90;;
4786;SDS011;62338;48.832;9.422;2023-06-10T02:47:12;6.27;;;4.00;;
4786;SDS011;62338;48.832;9.422;2023-06-10T02:49:14;5.20;;;3.33;;
4786;SDS011;62338;48.832;9.422;2023-06-10T02:51:16;8.47;;;3.97;;
4786;SDS011;62338;48.832;9.422;2023-06-10T02:53:17;7.37;;;4.30;;
4786;SDS011;62338;48.832;9.422;2023-06-10T02:55:19;6.90;;;4.10;;
4786;SDS011;62338;48.832;9.422;2023-06-10T02:57:22;6.17;;;4.37;;
4786;SDS011;62338;48.832;9.422;2023-06-10T02:59:24;5.83;;;3.70;;
4786;SDS011;62338;48.832;9.422;2023-06-10T03:01:28;7.60;;;4.40;;
4786;SDS011;62338;48.832;9.422;2023-06-10T03:03:29;10.70;;;4.00;;
4786;SDS011;62338;48.832;9.422;2023-06-10T03:05:32;5.87;;;4.00;;
4786;SDS011;62338;48.832;9.422;2023-06-10T03:07:33;6.43;;;3.70;;
4786;SDS011;62338;48.832;9.422;2023-06-10T03:09:36;6.20;;;4.17;;
4786;SDS011;62338;48.832;9.422;2023-06-10T03:11:38;6.00;;;3.67;;
4786;SDS011;62338;48.832;9.422;2023-06-10T03:13:40;6.43;;;4.33;;
4786;SDS011;62338;48.832;9.422;2023-06-10T03:15:41;6.63;;;3.87;;
4786;SDS011;62338;48.832;9.422;2023-06-10T03:17:43;5.87;;;3.87;;
4786;SDS011;62338;48.832;9.422;2023-06-10T03:19:45;9.10;;;4.70;;
4786;SDS011;62338;48.832;9.422;2023-06-10T03:21:49;6.20;;;3.60;;
4786;SDS011;62338;48.832;9.422;2023-06-10T03:23:56;9.87;;;4.10;;
4786;SDS011;62338;48.832;9.422;2023-06-10T03:25:57;5.80;;;3.60;;
4786;SDS011;62338;48.832;9.422;2023-06-10T03:27:59;5.27;;;3.90;;
4786;SDS011;62338;48.832;9.422;2023-06-10T03:30:01;7.60;;;3.83;;
4786;SDS011;62338;48.832;9.422;2023-06-10T03:32:04;6.60;;;4.07;;
4786;SDS011;62338;48.832;9.422;2023-06-10T03:34:07;6.50;;;4.07;;
4786;SDS011;62338;48.832;9.422;2023-06-10T03:36:08;6.40;;;4.60;;
4786;SDS011;62338;48.832;9.422;2023-06-10T03:38:11;6.40;;;3.93;;
4786;SDS011;62338;48.832;9.422;2023-06-10T03:40:12;5.67;;;3.87;;
4786;SDS011;62338;48.832;9.422;2023-06-10T03:42:14;6.90;;;4.47;;
4786;SDS011;62338;48.832;9.422;2023-06-10T03:44:16;5.57;;;3.60;;
4786;SDS011;62338;48.832;9.422;2023-06-10T03:46:18;6.27;;;3.70;;
4786;SDS011;62338;48.832;9.422;2023-06-10T03:48:20;6.40;;;4.00;;
4786;SDS011;62338;48.832;9.422;2023-06-10T03:50:22;8.00;;;4.20;;
4786;SDS011;62338;48.832;9.422;2023-06-10T03:52:24;7.60;;;4.13;;
4786;SDS011;62338;48.832;9.422;2023-06-10T03:54:26;9.03;;;4.10;;
4786;SDS011;62338;48.832;9.422;2023-06-10T03:56:28;9.10;;;4.80;;
4786;SDS011;62338;48.832;9.422;2023-06-10T03:58:30;5.57;;;3.63;;
4786;SDS011;62338;48.832;9.422;2023-06-10T04:00:31;5.30;;;3.80;;
4786;SDS011;62338;48.832;9.422;2023-06-10T04:02:42;6.27;;;4.27;;
4786;SDS011;62338;48.832;9.422;2023-06-10T04:04:48;5.70;;;3.93;;
4786;SDS011;62338;48.832;9.422;2023-06-10T04:06:50;7.50;;;4.10;;
4786;SDS011;62338;48.832;9.422;2023-06-10T04:08:52;6.30;;;4.17;;
4786;SDS011;62338;48.832;9.422;2023-06-10T04:10:54;7.47;;;4.90;;
4786;SDS011;62338;48.832;9.422;2023-06-10T04:12:57;7.47;;;4.03;;
4786;SDS011;62338;48.832;9.422;2023-06-10T04:14:59;7.73;;;4.90;;
4786;SDS011;62338;48.832;9.422;2023-06-10T04:17:01;6.43;;;4.33;;
4786;SDS011;62338;48.832;9.422;2023-06-10T04:19:03;5.20;;;4.00;;
4786;SDS011;62338;48.832;9.422;2023-06-10T04:21:05;8.77;;;4.37;;
4786;SDS011;62338;48.832;9.422;2023-06-10T04:23:07;7.40;;;4.87;;
4786;SDS011;62338;48.832;9.422;2023-06-10T04:25:09;6.17;;;4.03;;
4786;SDS011;62338;48.832;9.422;2023-06-10T04:27:11;13.53;;;4.10;;
4786;SDS011;62338;48.832;9.422;2023-06-10T04:29:13;6.30;;;4.30;;
4786;SDS011;62338;48.832;9.422;2023-06-10T04:31:15;6.27;;;4.37;;
4786;SDS011;62338;48.832;9.422;2023-06-10T04:33:17;6.67;;;4.07;;
4786;SDS011;62338;48.832;9.422;2023-06-10T04:35:19;8.40;;;4.50;;
4786;SDS011;62338;48.832;9.422;2023-06-10T04:37:21;9.03;;;5.20;;
4786;SDS011;62338;48.832;9.422;2023-06-10T04:39:22;6.90;;;4.53;;
4786;SDS011;62338;48.832;9.422;2023-06-10T04:41:24;7.77;;;4.50;;
4786;SDS011;62338;48.832;9.422;2023-06-10T04:43:27;7.40;;;3.90;;
4786;SDS011;62338;48.832;9.422;2023-06-10T04:45:29;11.13;;;5.27;;
4786;SDS011;62338;48.832;9.422;2023-06-10T04:47:32;6.47;;;3.93;;
4786;SDS011;62338;48.832;9.422;2023-06-10T04:49:34;8.20;;;4.80;;
4786;SDS011;62338;48.832;9.422;2023-06-10T04:51:36;7.50;;;3.77;;
4786;SDS011;62338;48.832;9.422;2023-06-10T04:53:39;7.70;;;4.10;;
4786;SDS011;62338;48.832;9.422;2023-06-10T04:55:41;6.67;;;4.27;;
4786;SDS011;62338;48.832;9.422;2023-06-10T04:57:43;5.93;;;4.10;;
4786;SDS011;62338;48.832;9.422;2023-06-10T04:59:45;5.60;;;3.90;;
4786;SDS011;62338;48.832;9.422;2023-06-10T05:01:47;6.50;;;4.30;;
4786;SDS011;62338;48.832;9.422;2023-06-10T05:03:48;7.43;;;4.90;;
4786;SDS011;62338;48.832;9.422;2023-06-10T05:05:50;7.07;;;4.10;;
4786;SDS011;62338;48.832;9.422;2023-06-10T05:09:58;6.80;;;4.43;;
4786;SDS011;62338;48.832;9.422;2023-06-10T05:12:00;6.37;;;5.00;;
4786;SDS011;62338;48.832;9.422;2023-06-10T05:14:02;6.47;;;4.20;;
4786;SDS011;62338;48.832;9.422;2023-06-10T05:16:03;6.83;;;4.50;;
4786;SDS011;62338;48.832;9.422;2023-06-10T05:18:05;8.47;;;5.23;;
4786;SDS011;62338;48.832;9.422;2023-06-10T05:20:07;5.73;;;4.50;;
4786;SDS011;62338;48.832;9.422;2023-06-10T05:22:09;6.67;;;4.43;;
4786;SDS011;62338;48.832;9.422;2023-06-10T05:24:11;6.13;;;4.10;;
4786;SDS011;62338;48.832;9.422;2023-06-10T05:26:13;5.90;;;4.07;;
4786;SDS011;62338;48.832;9.422;2023-06-10T05:28:15;6.43;;;4.67;;
4786;SDS011;62338;48.832;9.422;2023-06-10T05:30:17;6.23;;;4.43;;
4786;SDS011;62338;48.832;9.422;2023-06-10T05:32:19;5.73;;;4.40;;
4786;SDS011;62338;48.832;9.422;2023-06-10T05:34:21;6.97;;;4.90;;
4786;SDS011;62338;48.832;9.422;2023-06-10T05:36:23;6.70;;;4.43;;
4786;SDS011;62338;48.832;9.422;2023-06-10T05:38:28;7.17;;;4.83;;
4786;SDS011;62338;48.832;9.422;2023-06-10T05:40:30;6.27;;;4.50;;
4786;SDS011;62338;48.832;9.422;2023-06-10T05:42:32;8.60;;;5.07;;
4786;SDS011;62338;48.832;9.422;2023-06-10T05:44:34;7.73;;;4.20;;
4786;SDS011;62338;48.832;9.422;2023-06-10T05:46:36;7.50;;;4.40;;
4786;SDS011;62338;48.832;9.422;2023-06-10T05:48:38;7.43;;;4.47;;
4786;SDS011;62338;48.832;9.422;2023-06-10T05:50:40;6.97;;;4.33;;
4786;SDS011;62338;48.832;9.422;2023-06-10T05:52:43;6.13;;;4.63;;
4786;SDS011;62338;48.832;9.422;2023-06-10T05:54:46;6.57;;;4.07;;
4786;SDS011;62338;48.832;9.422;2023-06-10T05:56:47;7.47;;;4.30;;
4786;SDS011;62338;48.832;9.422;2023-06-10T05:58:49;5.10;;;3.70;;
4786;SDS011;62338;48.832;9.422;2023-06-10T06:00:51;6.53;;;3.63;;
4786;SDS011;62338;48.832;9.422;2023-06-10T06:02:53;5.50;;;3.90;;
4786;SDS011;62338;48.832;9.422;2023-06-10T06:04:55;6.20;;;4.10;;
4786;SDS011;62338;48.832;9.422;2023-06-10T06:06:57;6.20;;;4.50;;
4786;SDS011;62338;48.832;9.422;2023-06-10T06:08:59;7.63;;;3.63;;
4786;SDS011;62338;48.832;9.422;2023-06-10T06:11:01;7.57;;;4.07;;
4786;SDS011;62338;48.832;9.422;2023-06-10T06:13:02;5.90;;;4.77;;
4786;SDS011;62338;48.832;9.422;2023-06-10T06:15:04;8.97;;;4.50;;
4786;SDS011;62338;48.832;9.422;2023-06-10T06:17:07;6.50;;;4.60;;
4786;SDS011;62338;48.832;9.422;2023-06-10T06:19:08;5.47;;;3.90;;
4786;SDS011;62338;48.832;9.422;2023-06-10T06:21:12;7.10;;;4.10;;
4786;SDS011;62338;48.832;9.422;2023-06-10T06:23:14;7.17;;;4.30;;
4786;SDS011;62338;48.832;9.422;2023-06-10T06:25:15;6.27;;;4.07;;
4786;SDS011;62338;48.832;9.422;2023-06-10T06:27:17;6.00;;;4.30;;
4786;SDS011;62338;48.832;9.422;2023-06-10T06:29:19;6.53;;;4.53;;
4786;SDS011;62338;48.832;9.422;2023-06-10T06:31:21;5.67;;;3.60;;
4786;SDS011;62338;48.832;9.422;2023-06-10T06:33:22;6.57;;;4.23;;
4786;SDS011;62338;48.832;9.422;2023-06-10T06:35:25;5.80;;;3.73;;
4786;SDS011;62338;48.832;9.422;2023-06-10T06:37:26;6.23;;;3.90;;
4786;SDS011;62338;48.832;9.422;2023-06-10T06:39:28;6.60;;;4.50;;
4786;SDS011;62338;48.832;9.422;2023-06-10T06:41:30;6.43;;;4.43;;
4786;SDS011;62338;48.832;9.422;2023-06-10T06:43:32;7.27;;;4.30;;
4786;SDS011;62338;48.832;9.422;2023-06-10T06:45:34;6.30;;;4.37;;
4786;SDS011;62338;48.832;9.422;2023-06-10T06:47:36;7.30;;;4.53;;
4786;SDS011;62338;48.832;9.422;2023-06-10T06:49:37;5.40;;;4.17;;
4786;SDS011;62338;48.832;9.422;2023-06-10T06:51:39;6.23;;;4.50;;
4786;SDS011;62338;48.832;9.422;2023-06-10T06:53:41;5.90;;;3.70;;
4786;SDS011;62338;48.832;9.422;2023-06-10T06:55:45;5.20;;;3.67;;
4786;SDS011;62338;48.832;9.422;2023-06-10T06:57:47;6.30;;;4.20;;
4786;SDS011;62338;48.832;9.422;2023-06-10T06:59:49;5.63;;;3.80;;
4786;SDS011;62338;48.832;9.422;2023-06-10T07:01:50;5.93;;;3.97;;
4786;SDS011;62338;48.832;9.422;2023-06-10T07:03:55;7.13;;;3.85;;
4786;SDS011;62338;48.832;9.422;2023-06-10T07:05:56;6.95;;;3.90;;
4786;SDS011;62338;48.832;9.422;2023-06-10T07:07:58;4.63;;;3.55;;
4786;SDS011;62338;48.832;9.422;2023-06-10T07:10:00;5.55;;;3.10;;
4786;SDS011;62338;48.832;9.422;2023-06-10T07:12:02;5.72;;;3.78;;
4786;SDS011;62338;48.832;9.422;2023-06-10T07:14:04;4.35;;;3.17;;
4786;SDS011;62338;48.832;9.422;2023-06-10T07:16:06;4.63;;;3.40;;
4786;SDS011;62338;48.832;9.422;2023-06-10T07:18:07;4.63;;;3.10;;
4786;SDS011;62338;48.832;9.422;2023-06-10T07:20:09;5.60;;;3.58;;
4786;SDS011;62338;48.832;9.422;2023-06-10T07:22:11;4.95;;;3.28;;
4786;SDS011;62338;48.832;9.422;2023-06-10T07:24:13;5.03;;;3.53;;
4786;SDS011;62338;48.832;9.422;2023-06-10T07:26:15;7.65;;;3.65;;
4786;SDS011;62338;48.832;9.422;2023-06-10T07:28:17;4.32;;;3.35;;
4786;SDS011;62338;48.832;9.422;2023-06-10T07:30:19;4.55;;;3.25;;
4786;SDS011;62338;48.832;9.422;2023-06-10T07:32:21;8.07;;;4.05;;
4786;SDS011;62338;48.832;9.422;2023-06-10T07:34:24;5.70;;;3.47;;
4786;SDS011;62338;48.832;9.422;2023-06-10T07:36:26;3.90;;;2.90;;
4786;SDS011;62338;48.832;9.422;2023-06-10T07:38:29;4.35;;;3.30;;
4786;SDS011;62338;48.832;9.422;2023-06-10T07:40:31;6.53;;;4.35;;
4786;SDS011;62338;48.832;9.422;2023-06-10T07:42:35;5.10;;;3.17;;
4786;SDS011;62338;48.832;9.422;2023-06-10T07:44:37;5.75;;;3.08;;
4786;SDS011;62338;48.832;9.422;2023-06-10T07:46:39;4.80;;;3.35;;
4786;SDS011;62338;48.832;9.422;2023-06-10T07:48:41;4.88;;;3.42;;
4786;SDS011;62338;48.832;9.422;2023-06-10T07:50:43;6.60;;;3.97;;
4786;SDS011;62338;48.832;9.422;2023-06-10T07:52:45;4.95;;;3.72;;
4786;SDS011;62338;48.832;9.422;2023-06-10T07:54:46;4.53;;;3.50;;
4786;SDS011;62338;48.832;9.422;2023-06-10T07:56:48;4.50;;;3.47;;
4786;SDS011;62338;48.832;9.422;2023-06-10T07:58:50;4.78;;;3.88;;
4786;SDS011;62338;48.832;9.422;2023-06-10T08:00:51;4.40;;;3.33;;
4786;SDS011;62338;48.832;9.422;2023-06-10T08:02:55;4.25;;;3.42;;
4786;SDS011;62338;48.832;9.422;2023-06-10T08:04:57;5.90;;;3.63;;
4786;SDS011;62338;48.832;9.422;2023-06-10T08:06:58;5.80;;;3.53;;
4786;SDS011;62338;48.832;9.422;2023-06-10T08:09:00;4.70;;;3.45;;
4786;SDS011;62338;48.832;9.422;2023-06-10T08:11:02;5.07;;;3.53;;
4786;SDS011;62338;48.832;9.422;2023-06-10T08:13:04;4.55;;;3.03;;
4786;SDS011;62338;48.832;9.422;2023-06-10T08:15:05;4.97;;;3.55;;
4786;SDS011;62338;48.832;9.422;2023-06-10T08:17:08;5.03;;;3.67;;
4786;SDS011;62338;48.832;9.422;2023-06-10T08:19:10;6.82;;;3.75;;
4786;SDS011;62338;48.832;9.422;2023-06-10T08:21:11;4.55;;;3.45;;
4786;SDS011;62338;48.832;9.422;2023-06-10T08:23:13;5.10;;;3.30;;
4786;SDS011;62338;48.832;9.422;2023-06-10T08:25:15;4.03;;;3.05;;
4786;SDS011;62338;48.832;9.422;2023-06-10T08:27:17;4.72;;;3.00;;
4786;SDS011;62338;48.832;9.422;2023-06-10T08:29:19;6.47;;;3.78;;
4786;SDS011;62338;48.832;9.422;2023-06-10T08:31:21;4.18;;;3.08;;
4786;SDS011;62338;48.832;9.422;2023-06-10T08:33:23;4.57;;;3.55;;
4786;SDS011;62338;48.832;9.422;2023-06-10T08:35:25;10.43;;;3.35;;
4786;SDS011;62338;48.832;9.422;2023-06-10T08:37:26;5.97;;;3.85;;
4786;SDS011;62338;48.832;9.422;2023-06-10T08:39:28;4.82;;;2.90;;
4786;SDS011;62338;48.832;9.422;2023-06-10T08:41:35;4.47;;;3.35;;
4786;SDS011;62338;48.832;9.422;2023-06-10T08:43:48;4.15;;;3.10;;
4786;SDS011;62338;48.832;9.422;2023-06-10T08:46:10;4.28;;;3.60;;
4786;SDS011;62338;48.832;9.422;2023-06-10T08:48:15;6.32;;;3.90;;
4786;SDS011;62338;48.832;9.422;2023-06-10T08:50:20;5.30;;;3.30;;
4786;SDS011;62338;48.832;9.422;2023-06-10T08:52:23;5.13;;;3.88;;
4786;SDS011;62338;48.832;9.422;2023-06-10T08:54:28;5.00;;;3.40;;
4786;SDS011;62338;48.832;9.422;2023-06-10T08:56:36;4.43;;;3.17;;
4786;SDS011;62338;48.832;9.422;2023-06-10T08:58:41;5.15;;;3.50;;
4786;SDS011;62338;48.832;9.422;2023-06-10T09:00:44;3.88;;;3.10;;
4786;SDS011;62338;48.832;9.422;2023-06-10T09:02:46;4.03;;;3.22;;
4786;SDS011;62338;48.832;9.422;2023-06-10T09:04:48;6.47;;;3.92;;
4786;SDS011;62338;48.832;9.422;2023-06-10T09:06:51;4.55;;;3.35;;
4786;SDS011;62338;48.832;9.422;2023-06-10T09:08:53;4.50;;;3.60;;
4786;SDS011;62338;48.832;9.422;2023-06-10T09:10:56;3.40;;;2.58;;
4786;SDS011;62338;48.832;9.422;2023-06-10T09:12:58;4.88;;;3.63;;
4786;SDS011;62338;48.832;9.422;2023-06-10T09:15:00;5.05;;;3.00;;
4786;SDS011;62338;48.832;9.422;2023-06-10T09:17:05;4.00;;;3.45;;
4786;SDS011;62338;48.832;9.422;2023-06-10T09:19:07;5.43;;;3.65;;
4786;SDS011;62338;48.832;9.422;2023-06-10T09:21:09;4.30;;;3.58;;
4786;SDS011;62338;48.832;9.422;2023-06-10T09:23:11;4.93;;;3.70;;
4786;SDS011;62338;48.832;9.422;2023-06-10T09:25:14;4.07;;;3.47;;
4786;SDS011;62338;48.832;9.422;2023-06-10T09:27:16;5.85;;;3.60;;
4786;SDS011;62338;48.832;9.422;2023-06-10T09:29:18;4.47;;;3.50;;
4786;SDS011;62338;48.832;9.422;2023-06-10T09:31:20;5.60;;;3.35;;
4786;SDS011;62338;48.832;9.422;2023-06-10T09:33:24;5.47;;;4.28;;
4786;SDS011;62338;48.832;9.422;2023-06-10T09:35:29;4.45;;;3.47;;
4786;SDS011;62338;48.832;9.422;2023-06-10T09:37:32;5.70;;;3.75;;
4786;SDS011;62338;48.832;9.422;2023-06-10T09:39:34;4.80;;;3.10;;
4786;SDS011;62338;48.832;9.422;2023-06-10T09:41:39;5.30;;;3.70;;
4786;SDS011;62338;48.832;9.422;2023-06-10T09:43:42;4.70;;;3.13;;
4786;SDS011;62338;48.832;9.422;2023-06-10T09:45:47;5.45;;;4.35;;
4786;SDS011;62338;48.832;9.422;2023-06-10T09:47:53;4.28;;;3.00;;
4786;SDS011;62338;48.832;9.422;2023-06-10T09:49:55;8.77;;;3.33;;
4786;SDS011;62338;48.832;9.422;2023-06-10T09:51:56;5.25;;;3.13;;
4786;SDS011;62338;48.832;9.422;2023-06-10T09:53:59;6.45;;;3.42;;
4786;SDS011;62338;48.832;9.422;2023-06-10T09:56:03;4.60;;;3.45;;
4786;SDS011;62338;48.832;9.422;2023-06-10T09:58:05;3.85;;;3.22;;
4786;SDS011;62338;48.832;9.422;2023-06-10T10:00:08;4.15;;;3.70;;
4786;SDS011;62338;48.832;9.422;2023-06-10T10:02:15;5.95;;;3.80;;
4786;SDS011;62338;48.832;9.422;2023-06-10T10:04:22;4.53;;;3.05;;
4786;SDS011;62338;48.832;9.422;2023-06-10T10:06:25;4.93;;;3.70;;
4786;SDS011;62338;48.832;9.422;2023-06-10T10:08:28;4.05;;;3.45;;
4786;SDS011;62338;48.832;9.422;2023-06-10T10:10:30;4.53;;;3.03;;
4786;SDS011;62338;48.832;9.422;2023-06-10T10:12:32;4.72;;;2.85;;
4786;SDS011;62338;48.832;9.422;2023-06-10T10:14:35;7.43;;;3.22;;
4786;SDS011;62338;48.832;9.422;2023-06-10T10:16:37;4.45;;;3.38;;
4786;SDS011;62338;48.832;9.422;2023-06-10T10:18:43;5.80;;;3.47;;
4786;SDS011;62338;48.832;9.422;2023-06-10T10:20:50;3.80;;;3.00;;
4786;SDS011;62338;48.832;9.422;2023-06-10T10:23:02;4.10;;;3.00;;
4786;SDS011;62338;48.832;9.422;2023-06-10T10:25:12;3.95;;;2.92;;
4786;SDS011;62338;48.832;9.422;2023-06-10T10:27:18;3.35;;;2.67;;
4786;SDS011;62338;48.832;9.422;2023-06-10T10:30:00;3.85;;;3.28;;
4786;SDS011;62338;48.832;9.422;2023-06-10T10:32:06;4.88;;;3.65;;
4786;SDS011;62338;48.832;9.422;2023-06-10T10:34:12;4.40;;;3.42;;
4786;SDS011;62338;48.832;9.422;2023-06-10T10:36:18;4.47;;;3.22;;
4786;SDS011;62338;48.832;9.422;2023-06-10T10:38:21;4.43;;;3.28;;
4786;SDS011;62338;48.832;9.422;2023-06-10T10:40:23;5.70;;;3.78;;
4786;SDS011;62338;48.832;9.422;2023-06-10T10:42:26;4.45;;;3.20;;
4786;SDS011;62338;48.832;9.422;2023-06-10T10:44:29;4.75;;;3.45;;
4786;SDS011;62338;48.832;9.422;2023-06-10T10:46:37;4.53;;;3.67;;
4786;SDS011;62338;48.832;9.422;2023-06-10T10:48:44;5.47;;;3.78;;
4786;SDS011;62338;48.832;9.422;2023-06-10T10:50:56;5.43;;;3.92;;
4786;SDS011;62338;48.832;9.422;2023-06-10T10:53:00;4.32;;;3.50;;
4786;SDS011;62338;48.832;9.422;2023-06-10T10:55:03;4.45;;;3.35;;
4786;SDS011;62338;48.832;9.422;2023-06-10T10:59:22;4.55;;;3.42;;
4786;SDS011;62338;48.832;9.422;2023-06-10T11:01:24;4.53;;;3.70;;
4786;SDS011;62338;48.832;9.422;2023-06-10T11:03:44;4.65;;;3.55;;
4786;SDS011;62338;48.832;9.422;2023-06-10T11:05:48;5.88;;;3.70;;
4786;SDS011;62338;48.832;9.422;2023-06-10T11:07:52;4.43;;;3.30;;
4786;SDS011;62338;48.832;9.422;2023-06-10T11:10:01;6.93;;;4.30;;
4786;SDS011;62338;48.832;9.422;2023-06-10T11:12:09;5.55;;;3.90;;
4786;SDS011;62338;48.832;9.422;2023-06-10T11:14:11;5.65;;;4.05;;
4786;SDS011;62338;48.832;9.422;2023-06-10T11:16:14;5.03;;;3.90;;
4786;SDS011;62338;48.832;9.422;2023-06-10T11:18:24;6.25;;;3.60;;
4786;SDS011;62338;48.832;9.422;2023-06-10T11:20:50;6.90;;;4.10;;
4786;SDS011;62338;48.832;9.422;2023-06-10T11:22:58;5.78;;;3.60;;
4786;SDS011;62338;48.832;9.422;2023-06-10T11:25:01;5.13;;;3.50;;
4786;SDS011;62338;48.832;9.422;2023-06-10T11:27:14;6.95;;;3.72;;
4786;SDS011;62338;48.832;9.422;2023-06-10T11:29:17;4.55;;;3.45;;
4786;SDS011;62338;48.832;9.422;2023-06-10T11:33:24;4.32;;;3.25;;
4786;SDS011;62338;48.832;9.422;2023-06-10T11:35:27;5.30;;;3.53;;
4786;SDS011;62338;48.832;9.422;2023-06-10T11:37:28;4.95;;;3.72;;
4786;SDS011;62338;48.832;9.422;2023-06-10T11:39:30;4.18;;;3.30;;
4786;SDS011;62338;48.832;9.422;2023-06-10T11:41:34;4.72;;;3.58;;
4786;SDS011;62338;48.832;9.422;2023-06-10T11:43:36;4.88;;;3.35;;
4786;SDS011;62338;48.832;9.422;2023-06-10T11:45:41;4.20;;;3.35;;
4786;SDS011;62338;48.832;9.422;2023-06-10T11:47:55;4.68;;;3.40;;
4786;SDS011;62338;48.832;9.422;2023-06-10T11:50:01;4.47;;;3.45;;
4786;SDS011;62338;48.832;9.422;2023-06-10T11:52:04;4.05;;;3.13;;
4786;SDS011;62338;48.832;9.422;2023-06-10T11:54:08;4.10;;;3.00;;
4786;SDS011;62338;48.832;9.422;2023-06-10T11:56:10;4.65;;;2.92;;
4786;SDS011;62338;48.832;9.422;2023-06-10T11:58:20;4.55;;;3.10;;
4786;SDS011;62338;48.832;9.422;2023-06-10T12:00:23;11.48;;;3.45;;
4786;SDS011;62338;48.832;9.422;2023-06-10T12:02:26;5.95;;;3.63;;
4786;SDS011;62338;48.832;9.422;2023-06-10T12:04:27;4.53;;;3.40;;
4786;SDS011;62338;48.832;9.422;2023-06-10T12:06:42;5.53;;;3.75;;
4786;SDS011;62338;48.832;9.422;2023-06-10T12:08:45;4.30;;;3.05;;
4786;SDS011;62338;48.832;9.422;2023-06-10T12:10:47;5.03;;;3.28;;
4786;SDS011;62338;48.832;9.422;2023-06-10T12:12:49;4.60;;;3.22;;
4786;SDS011;62338;48.832;9.422;2023-06-10T12:14:57;3.83;;;2.72;;
4786;SDS011;62338;48.832;9.422;2023-06-10T12:17:00;4.35;;;3.25;;
4786;SDS011;62338;48.832;9.422;2023-06-10T12:19:02;6.40;;;2.90;;
4786;SDS011;62338;48.832;9.422;2023-06-10T12:23:24;5.85;;;2.65;;
4786;SDS011;62338;48.832;9.422;2023-06-10T12:25:29;5.20;;;3.25;;
4786;SDS011;62338;48.832;9.422;2023-06-10T12:27:31;3.72;;;3.00;;
4786;SDS011;62338;48.832;9.422;2023-06-10T12:29:34;3.88;;;2.97;;
4786;SDS011;62338;48.832;9.422;2023-06-10T12:31:52;4.57;;;3.17;;
4786;SDS011;62338;48.832;9.422;2023-06-10T12:34:09;3.70;;;3.00;;
4786;SDS011;62338;48.832;9.422;2023-06-10T12:36:15;3.97;;;3.28;;
4786;SDS011;62338;48.832;9.422;2023-06-10T12:38:22;3.88;;;3.17;;
4786;SDS011;62338;48.832;9.422;2023-06-10T12:40:32;4.85;;;2.92;;
4786;SDS011;62338;48.832;9.422;2023-06-10T12:42:36;4.60;;;3.38;;
4786;SDS011;62338;48.832;9.422;2023-06-10T12:44:39;3.80;;;3.10;;
4786;SDS011;62338;48.832;9.422;2023-06-10T12:46:42;3.72;;;2.72;;
4786;SDS011;62338;48.832;9.422;2023-06-10T12:48:50;3.35;;;2.60;;